createdAt,value
2023-05-16T00:01:49.345Z,5.53
2023-05-16T00:04:17.725Z,5.15
2023-05-16T00:06:44.885Z,5.40
2023-05-16T00:09:12.057Z,4.65
2023-05-16T00:11:39.144Z,4.25
2023-05-16T00:14:06.533Z,3.60
2023-05-16T00:16:33.664Z,3.63
2023-05-16T00:19:01.263Z,4.10
2023-05-16T00:21:28.796Z,4.38
2023-05-16T00:23:55.881Z,4.32
2023-05-16T00:26:22.969Z,4.50
2023-05-16T00:28:50.026Z,4.45
2023-05-16T00:31:17.160Z,4.20
2023-05-16T00:33:44.288Z,4.22
2023-05-16T00:36:11.572Z,3.92
2023-05-16T00:38:40.856Z,3.65
2023-05-16T00:41:09.656Z,3.35
2023-05-16T00:43:36.393Z,2.75
2023-05-16T00:46:05.751Z,3.42
2023-05-16T00:48:35.390Z,3.25
2023-05-16T00:51:09.212Z,2.97
2023-05-16T00:53:38.444Z,2.90
2023-05-16T00:56:06.714Z,3.60
2023-05-16T00:58:34.003Z,3.20
2023-05-16T01:01:05.024Z,2.78
2023-05-16T01:03:32.224Z,2.60
2023-05-16T01:05:59.283Z,3.00
2023-05-16T01:08:28.337Z,2.75
2023-05-16T01:11:01.581Z,2.63
2023-05-16T01:13:37.617Z,2.85
2023-05-16T01:16:11.280Z,2.60
2023-05-16T01:18:43.849Z,3.17
2023-05-16T01:21:21.571Z,3.00
2023-05-16T01:23:57.755Z,2.85
2023-05-16T01:26:26.615Z,2.50
2023-05-16T01:28:53.908Z,3.13
2023-05-16T01:31:21.753Z,3.05
2023-05-16T01:33:48.945Z,3.20
2023-05-16T01:36:22.433Z,2.88
2023-05-16T01:39:03.967Z,2.97
2023-05-16T01:41:46.588Z,3.17
2023-05-16T01:44:32.849Z,3.40
2023-05-16T01:47:02.461Z,3.10
2023-05-16T01:49:36.680Z,3.08
2023-05-16T01:52:12.169Z,4.03
2023-05-16T01:54:41.082Z,4.18
2023-05-16T01:57:11.176Z,4.37
2023-05-16T01:59:41.377Z,5.15
2023-05-16T02:02:08.446Z,5.35
2023-05-16T02:04:35.607Z,5.25
2023-05-16T02:07:02.865Z,5.13
2023-05-16T02:09:29.946Z,5.22
2023-05-16T02:11:57.067Z,4.50
2023-05-16T02:14:25.841Z,4.40
2023-05-16T02:16:53.104Z,5.00
2023-05-16T02:19:20.796Z,5.30
2023-05-16T02:21:48.059Z,4.70
2023-05-16T02:24:15.599Z,4.95
2023-05-16T02:26:42.750Z,4.95
2023-05-16T02:29:10.183Z,4.85
2023-05-16T02:31:37.402Z,6.00
2023-05-16T02:34:04.675Z,6.45
2023-05-16T02:36:32.045Z,6.10
2023-05-16T02:38:59.174Z,6.32
2023-05-16T02:41:26.794Z,6.22
2023-05-16T02:43:53.985Z,6.65
2023-05-16T02:46:28.517Z,7.43
2023-05-16T02:48:55.867Z,7.18
2023-05-16T02:51:23.571Z,7.40
2023-05-16T02:53:50.693Z,7.35
2023-05-16T02:56:17.841Z,8.55
2023-05-16T02:58:47.856Z,6.95
2023-05-16T03:01:15.623Z,7.22
2023-05-16T03:03:43.270Z,8.10
2023-05-16T03:06:12.797Z,7.78
2023-05-16T03:08:39.899Z,8.73
2023-05-16T03:11:07.112Z,8.95
2023-05-16T03:13:34.394Z,8.63
2023-05-16T03:16:01.526Z,7.20
2023-05-16T03:18:28.703Z,7.60
2023-05-16T03:20:56.224Z,5.63
2023-05-16T03:23:23.336Z,5.07
2023-05-16T03:25:50.658Z,3.92
2023-05-16T03:28:18.449Z,4.18
2023-05-16T03:30:45.713Z,3.92
2023-05-16T03:33:12.828Z,3.33
2023-05-16T03:35:40.866Z,3.42
2023-05-16T03:38:07.966Z,2.90
2023-05-16T03:40:35.086Z,2.78
2023-05-16T03:43:02.171Z,2.83
2023-05-16T03:45:32.492Z,3.00
2023-05-16T03:48:00.251Z,3.08
2023-05-16T03:50:27.514Z,3.15
2023-05-16T03:52:54.657Z,2.70
2023-05-16T03:55:22.060Z,3.47
2023-05-16T03:57:50.212Z,2.90
2023-05-16T04:00:17.848Z,2.75
2023-05-16T04:02:47.582Z,3.33
2023-05-16T04:05:14.978Z,3.20
2023-05-16T04:07:42.221Z,3.67
2023-05-16T04:10:09.880Z,3.53
2023-05-16T04:12:39.201Z,2.83
2023-05-16T04:15:07.240Z,3.38
2023-05-16T04:17:37.375Z,3.50
2023-05-16T04:20:04.999Z,3.30
2023-05-16T04:22:32.122Z,4.20
2023-05-16T04:24:59.302Z,2.63
2023-05-16T04:27:27.517Z,3.78
2023-05-16T04:29:54.660Z,3.60
2023-05-16T04:32:24.880Z,3.63
2023-05-16T04:34:54.219Z,4.43
2023-05-16T04:37:21.572Z,3.97
2023-05-16T04:39:48.623Z,4.13
2023-05-16T04:42:16.393Z,3.90
2023-05-16T04:44:44.037Z,3.50
2023-05-16T04:47:11.037Z,4.55
2023-05-16T04:49:37.794Z,3.83
2023-05-16T04:52:05.312Z,3.85
2023-05-16T04:54:32.861Z,3.83
2023-05-16T04:57:02.407Z,3.42
2023-05-16T04:59:31.820Z,3.17
2023-05-16T05:01:59.006Z,3.42
2023-05-16T05:04:28.449Z,4.78
2023-05-16T05:06:55.763Z,4.00
2023-05-16T05:09:23.421Z,3.28
2023-05-16T05:11:50.865Z,4.15
2023-05-16T05:14:20.456Z,3.40
2023-05-16T05:16:47.578Z,3.20
2023-05-16T05:19:14.747Z,3.78
2023-05-16T05:21:41.855Z,3.53
2023-05-16T05:24:08.993Z,3.20
2023-05-16T05:26:36.247Z,4.03
2023-05-16T05:29:05.865Z,3.75
2023-05-16T05:31:34.830Z,4.50
2023-05-16T05:34:02.382Z,3.00
2023-05-16T05:36:29.564Z,3.47
2023-05-16T05:38:56.688Z,4.55
2023-05-16T05:41:23.830Z,3.70
2023-05-16T05:43:51.095Z,3.03
2023-05-16T05:46:18.245Z,2.95
2023-05-16T05:48:45.505Z,3.80
2023-05-16T05:51:14.902Z,3.25
2023-05-16T05:53:44.694Z,3.47
2023-05-16T05:56:14.003Z,3.10
2023-05-16T05:58:42.392Z,3.75
2023-05-16T06:01:09.540Z,3.08
2023-05-16T06:03:36.675Z,3.83
2023-05-16T06:06:04.656Z,3.00
2023-05-16T06:08:31.844Z,3.88
2023-05-16T06:10:58.964Z,3.40
2023-05-16T06:13:26.078Z,2.63
2023-05-16T06:15:53.755Z,3.50
2023-05-16T06:18:21.288Z,3.10
2023-05-16T06:20:48.413Z,2.90
2023-05-16T06:23:15.828Z,2.67
2023-05-16T06:25:42.964Z,3.20
2023-05-16T06:28:10.096Z,3.17
2023-05-16T06:30:37.201Z,3.65
2023-05-16T06:33:06.969Z,3.25
2023-05-16T06:35:34.118Z,2.80
2023-05-16T06:38:01.235Z,3.58
2023-05-16T06:40:28.406Z,4.25
2023-05-16T06:42:58.457Z,3.13
2023-05-16T06:45:26.123Z,3.33
2023-05-16T06:47:55.905Z,2.83
2023-05-16T06:50:24.335Z,3.47
2023-05-16T06:52:51.459Z,3.70
2023-05-16T06:55:18.800Z,4.05
2023-05-16T06:57:48.194Z,3.60
2023-05-16T07:00:15.660Z,3.25
2023-05-16T07:02:42.936Z,3.40
2023-05-16T07:05:10.360Z,2.70
2023-05-16T07:07:40.196Z,3.00
2023-05-16T07:12:34.708Z,2.53
2023-05-16T07:15:01.890Z,2.92
2023-05-16T07:17:29.065Z,2.30
2023-05-16T07:19:56.318Z,2.72
2023-05-16T07:22:23.667Z,2.40
2023-05-16T07:24:53.396Z,2.45
2023-05-16T07:27:23.386Z,2.33
2023-05-16T07:29:50.776Z,2.38
2023-05-16T07:32:18.223Z,2.53
2023-05-16T07:34:46.140Z,2.55
2023-05-16T07:37:13.812Z,2.42
2023-05-16T07:39:41.322Z,2.20
2023-05-16T07:42:09.247Z,3.03
2023-05-16T07:44:36.608Z,2.25
2023-05-16T07:47:03.801Z,2.67
2023-05-16T07:49:31.056Z,2.42
2023-05-16T07:52:00.473Z,2.00
2023-05-16T07:54:30.246Z,1.83
2023-05-16T07:56:57.582Z,1.80
2023-05-16T07:59:24.923Z,2.15
2023-05-16T08:01:52.417Z,2.28
2023-05-16T08:04:20.229Z,2.22
2023-05-16T08:06:47.526Z,2.45
2023-05-16T08:09:14.730Z,2.30
2023-05-16T08:11:45.163Z,2.50
2023-05-16T08:14:12.613Z,2.25
2023-05-16T08:16:39.979Z,2.17
2023-05-16T08:19:07.768Z,1.55
2023-05-16T08:21:35.098Z,1.70
2023-05-16T08:24:02.467Z,2.42
2023-05-16T08:26:29.696Z,1.88
2023-05-16T08:28:59.577Z,1.33
2023-05-16T08:33:53.972Z,1.80
2023-05-16T08:36:21.131Z,1.70
2023-05-16T08:38:50.586Z,2.33
2023-05-16T08:41:17.869Z,1.63
2023-05-16T08:43:45.135Z,1.40
2023-05-16T08:46:12.398Z,2.10
2023-05-16T08:48:41.106Z,1.10
2023-05-16T08:51:09.168Z,2.20
2023-05-16T08:53:41.405Z,1.63
2023-05-16T08:56:09.210Z,1.10
2023-05-16T08:58:37.380Z,1.92
2023-05-16T09:01:08.931Z,1.50
2023-05-16T09:03:39.888Z,1.67
2023-05-16T09:06:09.599Z,1.65
2023-05-16T09:08:39.264Z,1.70
2023-05-16T09:11:08.805Z,1.38
2023-05-16T09:13:36.032Z,2.38
2023-05-16T09:16:13.132Z,2.30
2023-05-16T09:18:44.008Z,1.85
2023-05-16T09:21:13.467Z,1.58
2023-05-16T09:23:43.881Z,1.75
2023-05-16T09:26:11.079Z,1.80
2023-05-16T09:28:39.756Z,1.60
2023-05-16T09:31:39.195Z,2.65
2023-05-16T09:34:13.009Z,1.27
2023-05-16T09:36:42.216Z,1.00
2023-05-16T09:39:12.209Z,1.25
2023-05-16T09:41:39.409Z,1.73
2023-05-16T09:44:08.993Z,1.17
2023-05-16T09:46:39.002Z,1.48
2023-05-16T09:49:06.314Z,1.52
2023-05-16T09:51:37.521Z,1.85
2023-05-16T09:54:08.562Z,1.83
2023-05-16T09:56:48.670Z,2.20
2023-05-16T09:59:15.862Z,2.00
2023-05-16T10:01:43.228Z,1.88
2023-05-16T10:04:16.119Z,1.73
2023-05-16T10:06:44.174Z,1.55
2023-05-16T10:09:17.284Z,1.70
2023-05-16T10:11:46.020Z,1.60
2023-05-16T10:14:14.703Z,1.92
2023-05-16T10:16:43.723Z,1.80
2023-05-16T10:19:14.693Z,1.70
2023-05-16T10:21:46.817Z,1.20
2023-05-16T10:24:18.794Z,1.45
2023-05-16T10:26:45.951Z,1.80
2023-05-16T10:29:13.364Z,1.60
2023-05-16T10:31:41.254Z,1.52
2023-05-16T10:34:08.550Z,1.63
2023-05-16T10:36:35.950Z,2.22
2023-05-16T10:39:04.007Z,1.92
2023-05-16T10:41:31.617Z,1.95
2023-05-16T10:43:59.488Z,1.58
2023-05-16T10:46:29.321Z,1.77
2023-05-16T10:48:57.937Z,1.83
2023-05-16T10:51:36.641Z,2.10
2023-05-16T10:54:08.610Z,2.88
2023-05-16T10:56:35.827Z,1.50
2023-05-16T10:59:05.495Z,1.73
2023-05-16T11:01:34.485Z,2.05
2023-05-16T11:04:06.307Z,1.60
2023-05-16T11:06:42.634Z,1.63
2023-05-16T11:09:15.465Z,1.30
2023-05-16T11:11:43.157Z,1.67
2023-05-16T11:14:18.480Z,2.27
2023-05-16T11:16:51.484Z,1.38
2023-05-16T11:19:33.817Z,1.55
2023-05-16T11:22:09.927Z,1.58
2023-05-16T11:24:38.161Z,1.77
2023-05-16T11:27:05.976Z,1.65
2023-05-16T11:29:34.165Z,1.50
2023-05-16T11:32:02.366Z,1.60
2023-05-16T11:34:30.747Z,1.52
2023-05-16T11:36:58.035Z,1.15
2023-05-16T11:39:25.290Z,1.20
2023-05-16T11:41:57.442Z,1.60
2023-05-16T11:44:24.609Z,1.30
2023-05-16T11:46:51.836Z,1.67
2023-05-16T11:49:19.101Z,1.70
2023-05-16T11:51:46.800Z,1.25
2023-05-16T11:54:14.733Z,1.20
2023-05-16T11:56:44.177Z,1.85
2023-05-16T11:59:11.676Z,1.42
2023-05-16T12:01:39.901Z,1.52
2023-05-16T12:04:12.555Z,1.23
2023-05-16T12:06:40.135Z,1.50
2023-05-16T12:09:10.999Z,1.70
2023-05-16T12:11:38.783Z,1.70
2023-05-16T12:14:08.797Z,1.85
2023-05-16T12:16:42.436Z,1.50
2023-05-16T12:19:10.148Z,1.30
2023-05-16T12:21:38.872Z,1.58
2023-05-16T12:24:06.419Z,1.55
2023-05-16T12:26:36.403Z,1.20
2023-05-16T12:29:05.742Z,1.70
2023-05-16T12:31:39.119Z,1.25
2023-05-16T12:34:06.436Z,1.75
2023-05-16T12:36:37.644Z,1.65
2023-05-16T12:39:04.967Z,1.70
2023-05-16T12:41:32.256Z,1.70
2023-05-16T12:44:17.052Z,1.48
2023-05-16T12:46:45.613Z,1.50
2023-05-16T12:49:13.771Z,2.03
2023-05-16T12:51:41.362Z,1.80
2023-05-16T12:54:11.994Z,1.48
2023-05-16T12:56:42.184Z,1.50
2023-05-16T12:59:12.207Z,2.15
2023-05-16T13:01:40.805Z,1.80
2023-05-16T13:04:15.211Z,1.92
2023-05-16T13:06:57.265Z,1.95
2023-05-16T13:09:29.077Z,1.90
2023-05-16T13:11:58.428Z,1.60
2023-05-16T13:14:25.748Z,1.25
2023-05-16T13:16:52.950Z,1.65
2023-05-16T13:19:20.351Z,1.20
2023-05-16T13:21:47.775Z,1.48
2023-05-16T13:24:17.285Z,1.10
2023-05-16T13:26:44.950Z,0.82
2023-05-16T13:29:12.324Z,0.85
2023-05-16T13:31:39.578Z,1.45
2023-05-16T13:34:07.062Z,0.90
2023-05-16T13:36:49.218Z,1.33
2023-05-16T13:39:20.722Z,0.73
2023-05-16T13:41:49.132Z,1.17
2023-05-16T13:44:19.380Z,1.40
2023-05-16T13:46:46.794Z,1.20
2023-05-16T13:49:13.930Z,1.30
2023-05-16T13:51:41.332Z,1.25
2023-05-16T13:54:08.479Z,1.33
2023-05-16T13:56:35.633Z,1.15
2023-05-16T13:59:07.253Z,1.45
2023-05-16T14:01:37.423Z,1.30
2023-05-16T14:04:04.693Z,1.25
2023-05-16T14:06:34.748Z,1.65
2023-05-16T14:09:01.926Z,1.45
2023-05-16T14:11:29.575Z,1.55
2023-05-16T14:13:57.154Z,1.33
2023-05-16T14:16:24.396Z,1.45
2023-05-16T14:18:51.705Z,1.00
2023-05-16T14:21:19.759Z,1.40
2023-05-16T14:23:46.925Z,1.00
2023-05-16T14:26:18.065Z,1.27
2023-05-16T14:28:45.183Z,1.20
2023-05-16T14:31:12.398Z,1.55
2023-05-16T14:33:41.080Z,1.30
2023-05-16T14:36:10.792Z,1.40
2023-05-16T14:41:04.971Z,0.88
2023-05-16T14:43:32.458Z,1.13
2023-05-16T14:45:59.665Z,0.90
2023-05-16T14:48:26.931Z,1.10
2023-05-16T14:50:54.076Z,1.08
2023-05-16T14:53:21.774Z,1.13
2023-05-16T14:55:49.704Z,1.10
2023-05-16T14:58:16.831Z,1.08
2023-05-16T15:00:44.018Z,0.90
2023-05-16T15:03:12.143Z,0.98
2023-05-16T15:08:08.249Z,1.25
2023-05-16T15:10:35.446Z,1.20
2023-05-16T15:13:02.801Z,1.10
2023-05-16T15:15:33.059Z,1.52
2023-05-16T15:18:00.367Z,1.30
2023-05-16T15:20:27.948Z,1.17
2023-05-16T15:22:55.578Z,1.23
2023-05-16T15:25:22.770Z,1.17
2023-05-16T15:27:49.925Z,1.20
2023-05-16T15:30:17.156Z,1.10
2023-05-16T15:32:44.786Z,1.15
2023-05-16T15:35:12.028Z,1.33
2023-05-16T15:37:39.225Z,1.27
2023-05-16T15:40:08.338Z,1.00
2023-05-16T15:42:35.773Z,1.70
2023-05-16T15:45:03.383Z,1.23
2023-05-16T15:47:30.837Z,1.30
2023-05-16T15:49:58.013Z,1.30
2023-05-16T15:52:25.222Z,1.40
2023-05-16T15:54:52.364Z,1.50
2023-05-16T15:57:19.555Z,1.48
2023-05-16T15:59:46.846Z,1.77
2023-05-16T16:02:14.032Z,1.40
2023-05-16T16:04:41.368Z,1.40
2023-05-16T16:07:11.348Z,1.40
2023-05-16T16:09:38.462Z,1.60
2023-05-16T16:12:05.742Z,1.30
2023-05-16T16:14:32.906Z,1.50
2023-05-16T16:17:00.056Z,1.60
2023-05-16T16:19:27.326Z,1.48
2023-05-16T16:21:54.568Z,1.65
2023-05-16T16:24:21.730Z,1.60
2023-05-16T16:26:48.963Z,1.35
2023-05-16T16:29:16.291Z,1.52
2023-05-16T16:31:46.075Z,1.67
2023-05-16T16:34:13.263Z,1.60
2023-05-16T16:36:40.963Z,1.42
2023-05-16T16:39:10.378Z,1.45
2023-05-16T16:41:37.571Z,2.00
2023-05-16T16:44:04.715Z,1.67
2023-05-16T16:46:34.447Z,1.65
2023-05-16T16:51:30.250Z,1.35
2023-05-16T16:53:58.689Z,1.95
2023-05-16T16:56:30.041Z,2.05
2023-05-16T16:58:59.603Z,2.05
2023-05-16T17:01:29.713Z,1.80
2023-05-16T17:03:57.440Z,1.83
2023-05-16T17:06:24.602Z,2.03
2023-05-16T17:08:51.813Z,1.85
2023-05-16T17:11:23.321Z,2.03
2023-05-16T17:13:51.226Z,2.45
2023-05-16T17:16:18.624Z,2.00
2023-05-16T17:18:48.125Z,2.25
2023-05-16T17:21:15.325Z,1.85
2023-05-16T17:23:44.122Z,1.70
2023-05-16T17:26:13.717Z,1.50
2023-05-16T17:28:41.035Z,2.42
2023-05-16T17:31:08.175Z,2.17
2023-05-16T17:33:35.393Z,1.90
2023-05-16T17:36:02.769Z,1.73
2023-05-16T17:38:32.360Z,2.00
2023-05-16T17:41:02.288Z,2.15
2023-05-16T17:43:34.136Z,1.67
2023-05-16T17:46:01.465Z,2.55
2023-05-16T17:48:28.648Z,1.90
2023-05-16T17:50:55.976Z,1.48
2023-05-16T17:53:26.628Z,1.85
2023-05-16T17:55:53.776Z,2.03
2023-05-16T17:58:23.429Z,2.00
2023-05-16T18:00:53.746Z,2.03
2023-05-16T18:03:23.294Z,1.80
2023-05-16T18:05:50.963Z,1.92
2023-05-16T18:08:18.185Z,1.73
2023-05-16T18:10:52.194Z,1.55
2023-05-16T18:13:20.133Z,1.30
2023-05-16T18:15:49.477Z,1.70
2023-05-16T18:18:17.602Z,1.90
2023-05-16T18:20:47.224Z,1.77
2023-05-16T18:23:14.472Z,2.13
2023-05-16T18:25:41.614Z,1.83
2023-05-16T18:28:08.787Z,1.55
2023-05-16T18:30:38.052Z,1.77
2023-05-16T18:33:07.866Z,1.58
2023-05-16T18:35:35.096Z,1.90
2023-05-16T18:38:04.656Z,1.70
2023-05-16T18:40:31.881Z,1.73
2023-05-16T18:42:59.043Z,2.17
2023-05-16T18:45:26.560Z,1.60
2023-05-16T18:47:56.769Z,1.40
2023-05-16T18:50:26.287Z,1.65
2023-05-16T18:52:57.339Z,2.00
2023-05-16T18:55:27.291Z,1.95
2023-05-16T18:57:54.789Z,1.92
2023-05-16T19:00:21.916Z,1.90
2023-05-16T19:02:49.088Z,1.90
2023-05-16T19:05:16.608Z,1.73
2023-05-16T19:07:43.856Z,1.83
2023-05-16T19:10:13.404Z,2.03
2023-05-16T19:12:40.604Z,1.88
2023-05-16T19:15:08.994Z,1.92
2023-05-16T19:17:36.282Z,1.80
2023-05-16T19:20:03.576Z,1.73
2023-05-16T19:22:30.875Z,2.78
2023-05-16T19:24:58.000Z,1.50
2023-05-16T19:27:25.114Z,1.98
2023-05-16T19:29:52.274Z,2.42
2023-05-16T19:32:19.441Z,1.80
2023-05-16T19:34:49.342Z,1.70
2023-05-16T19:39:43.555Z,1.73
2023-05-16T19:42:10.777Z,1.80
2023-05-16T19:44:37.980Z,2.15
2023-05-16T19:47:05.262Z,1.65
2023-05-16T19:49:32.579Z,1.88
2023-05-16T19:51:59.774Z,1.90
2023-05-16T19:54:27.038Z,1.85
2023-05-16T19:56:54.215Z,1.92
2023-05-16T19:59:22.472Z,1.90
2023-05-16T20:01:49.637Z,2.13
2023-05-16T20:04:16.837Z,1.70
2023-05-16T20:06:46.944Z,2.08
2023-05-16T20:09:16.393Z,2.03
2023-05-16T20:11:43.566Z,1.70
2023-05-16T20:14:10.779Z,1.98
2023-05-16T20:16:40.623Z,1.85
2023-05-16T20:21:35.200Z,1.70
2023-05-16T20:24:02.646Z,1.58
2023-05-16T20:26:34.494Z,1.90
2023-05-16T20:29:03.869Z,2.22
2023-05-16T20:31:31.114Z,2.88
2023-05-16T20:33:58.329Z,1.88
2023-05-16T20:36:25.550Z,1.75
2023-05-16T20:38:52.711Z,1.80
2023-05-16T20:41:19.852Z,2.35
2023-05-16T20:43:47.032Z,2.13
2023-05-16T20:46:14.288Z,1.40
2023-05-16T20:48:41.442Z,2.05
2023-05-16T20:51:10.834Z,1.92
2023-05-16T20:53:38.241Z,2.15
2023-05-16T20:56:05.620Z,1.60
2023-05-16T20:58:33.063Z,1.80
2023-05-16T21:01:02.158Z,1.98
2023-05-16T21:03:29.346Z,1.98
2023-05-16T21:05:59.027Z,2.17
2023-05-16T21:08:26.260Z,2.10
2023-05-16T21:10:53.405Z,2.10
2023-05-16T21:13:20.859Z,2.40
2023-05-16T21:15:49.211Z,1.55
2023-05-16T21:18:18.629Z,1.85
2023-05-16T21:20:48.086Z,1.90
2023-05-16T21:23:15.416Z,2.10
2023-05-16T21:25:42.569Z,2.10
2023-05-16T21:28:12.246Z,1.60
2023-05-16T21:30:41.945Z,2.22
2023-05-16T21:33:09.213Z,2.10
2023-05-16T21:35:36.416Z,2.10
2023-05-16T21:38:03.546Z,1.95
2023-05-16T21:40:33.212Z,1.80
2023-05-16T21:43:02.630Z,2.00
2023-05-16T21:45:29.978Z,1.60
2023-05-16T21:47:57.349Z,2.30
2023-05-16T21:50:24.542Z,1.77
2023-05-16T21:52:51.759Z,2.35
2023-05-16T21:55:18.895Z,2.00
2023-05-16T21:57:46.046Z,1.73
2023-05-16T22:00:13.501Z,2.10
2023-05-16T22:02:43.328Z,2.00
2023-05-16T22:07:37.912Z,1.98
2023-05-16T22:10:05.406Z,1.48
2023-05-16T22:12:32.566Z,2.33
2023-05-16T22:15:02.097Z,1.80
2023-05-16T22:17:29.298Z,2.30
2023-05-16T22:19:56.472Z,2.17
2023-05-16T22:22:23.737Z,2.15
2023-05-16T22:24:50.920Z,1.50
2023-05-16T22:27:18.136Z,1.75
2023-05-16T22:29:50.088Z,1.70
2023-05-16T22:32:17.219Z,2.10
2023-05-16T22:34:44.354Z,1.70
2023-05-16T22:37:11.533Z,1.85
2023-05-16T22:39:38.684Z,1.77
2023-05-16T22:42:08.230Z,2.00
2023-05-16T22:44:35.416Z,2.47
2023-05-16T22:47:02.719Z,1.90
2023-05-16T22:49:29.825Z,1.50
2023-05-16T22:51:59.442Z,2.00
2023-05-16T22:54:26.645Z,2.13
2023-05-16T22:56:53.765Z,1.90
2023-05-16T22:59:20.862Z,1.77
2023-05-16T23:01:50.606Z,1.80
2023-05-16T23:04:17.803Z,2.00
2023-05-16T23:06:44.999Z,2.10
2023-05-16T23:09:12.141Z,1.88
2023-05-16T23:11:41.721Z,1.95
2023-05-16T23:14:11.151Z,1.70
2023-05-16T23:16:40.786Z,1.85
2023-05-16T23:19:09.501Z,1.75
2023-05-16T23:21:37.357Z,2.03
2023-05-16T23:24:04.603Z,1.42
2023-05-16T23:26:31.950Z,1.52
2023-05-16T23:28:59.078Z,1.80
2023-05-16T23:31:26.237Z,1.60
2023-05-16T23:33:53.438Z,1.80
2023-05-16T23:36:23.179Z,2.22
2023-05-16T23:38:50.815Z,1.75
2023-05-16T23:41:20.254Z,1.88
2023-05-16T23:43:47.852Z,2.30
2023-05-16T23:46:15.038Z,2.53
2023-05-16T23:48:42.278Z,2.38
2023-05-16T23:51:09.480Z,2.28
2023-05-16T23:53:39.044Z,1.65
2023-05-16T23:56:06.265Z,2.38
2023-05-16T23:58:33.655Z,2.30
